<?xml version="1.0" encoding="UTF-8" standalone="no" ?>
<gpx xmlns="http://www.topografix.com/GPX/1/1" xmlns:xsi="http://www.w3.org/2001/XMLSchema-instance" xsi:schemaLocation="http://www.topografix.com/GPX/1/1 http://www.topografix.com/GPX/1/1/gpx.xsd" version="1.1" creator="VisuGPX - https://www.visugpx.com">
  <metadata>
    <name>Dole - rue Claude Berthollet (Jeanrenaud)</name>
    <desc><![CDATA[Rando effectuée le 24/4/2016
L'indice IBP d'effort est de 37, (suivant l'échelle de la FFRP) un score compris entre 26 et 50 correspond au niveau 2 qualifié de "ASSEZ FACILE". La randonnée pédestre présente peu de difficulté physique. Ce niveau correspond aux promenades et petites randonnées.]]></desc>
  </metadata>
  <trk>
    <name><![CDATA[--Authume-- OR-5997068:vzjopvzn,v`^z]]></name>
    <trkseg>
      <trkpt lat="47.1128" lon="5.49916">
        <ele>246</ele>
        <time>2016-04-25T12:54:05Z</time>
      </trkpt>
      <trkpt lat="47.11352" lon="5.4989">
        <ele>245</ele>
        <time>2016-04-25T12:56:05Z</time>
      </trkpt>
      <trkpt lat="47.11387" lon="5.49868">
        <ele>244</ele>
        <time>2016-04-25T12:58:05Z</time>
      </trkpt>
      <trkpt lat="47.11414" lon="5.49842">
        <ele>243</ele>
        <time>2016-04-25T13:00:05Z</time>
      </trkpt>
      <trkpt lat="47.1147" lon="5.49688">
        <ele>247</ele>
        <time>2016-04-25T13:02:05Z</time>
      </trkpt>
      <trkpt lat="47.1147" lon="5.4966">
        <ele>248</ele>
        <time>2016-04-25T13:04:05Z</time>
      </trkpt>
      <trkpt lat="47.11447" lon="5.49631">
        <ele>248</ele>
        <time>2016-04-25T13:06:05Z</time>
      </trkpt>
      <trkpt lat="47.11419" lon="5.49602">
        <ele>250</ele>
        <time>2016-04-25T13:08:05Z</time>
      </trkpt>
      <trkpt lat="47.11398" lon="5.49519">
        <ele>251</ele>
        <time>2016-04-25T13:10:05Z</time>
      </trkpt>
      <trkpt lat="47.11378" lon="5.49492">
        <ele>253</ele>
        <time>2016-04-25T13:12:05Z</time>
      </trkpt>
      <trkpt lat="47.11384" lon="5.49368">
        <ele>255</ele>
        <time>2016-04-25T13:14:05Z</time>
      </trkpt>
      <trkpt lat="47.11386" lon="5.49361">
        <ele>255</ele>
        <time>2016-04-25T13:16:05Z</time>
      </trkpt>
      <trkpt lat="47.11387" lon="5.49354">
        <ele>255</ele>
        <time>2016-04-25T13:18:05Z</time>
      </trkpt>
      <trkpt lat="47.11387" lon="5.49345">
        <ele>256</ele>
        <time>2016-04-25T13:20:05Z</time>
      </trkpt>
      <trkpt lat="47.1139" lon="5.49292">
        <ele>257</ele>
        <time>2016-04-25T13:22:05Z</time>
      </trkpt>
      <trkpt lat="47.11378" lon="5.49236">
        <ele>260</ele>
        <time>2016-04-25T13:24:05Z</time>
      </trkpt>
      <trkpt lat="47.11374" lon="5.49223">
        <ele>261</ele>
        <time>2016-04-25T13:26:05Z</time>
      </trkpt>
      <trkpt lat="47.11371" lon="5.49208">
        <ele>262</ele>
        <time>2016-04-25T13:28:05Z</time>
      </trkpt>
      <trkpt lat="47.11372" lon="5.49193">
        <ele>264</ele>
        <time>2016-04-25T13:30:05Z</time>
      </trkpt>
      <trkpt lat="47.11381" lon="5.49167">
        <ele>266</ele>
        <time>2016-04-25T13:32:05Z</time>
      </trkpt>
      <trkpt lat="47.11404" lon="5.49132">
        <ele>268</ele>
        <time>2016-04-25T13:34:05Z</time>
      </trkpt>
      <trkpt lat="47.11406" lon="5.49125">
        <ele>269</ele>
        <time>2016-04-25T13:36:05Z</time>
      </trkpt>
      <trkpt lat="47.11407" lon="5.4911">
        <ele>270</ele>
        <time>2016-04-25T13:38:05Z</time>
      </trkpt>
      <trkpt lat="47.11397" lon="5.49076">
        <ele>272</ele>
        <time>2016-04-25T13:40:05Z</time>
      </trkpt>
      <trkpt lat="47.11384" lon="5.49065">
        <ele>273</ele>
        <time>2016-04-25T13:42:05Z</time>
      </trkpt>
      <trkpt lat="47.1138" lon="5.49061">
        <ele>273</ele>
        <time>2016-04-25T13:44:05Z</time>
      </trkpt>
      <trkpt lat="47.1137" lon="5.49055">
        <ele>273</ele>
        <time>2016-04-25T13:46:05Z</time>
      </trkpt>
      <trkpt lat="47.11338" lon="5.49019">
        <ele>275</ele>
        <time>2016-04-25T13:48:05Z</time>
      </trkpt>
      <trkpt lat="47.1133" lon="5.4901">
        <ele>275</ele>
        <time>2016-04-25T13:50:05Z</time>
      </trkpt>
      <trkpt lat="47.11324" lon="5.48999">
        <ele>275</ele>
        <time>2016-04-25T13:52:05Z</time>
      </trkpt>
      <trkpt lat="47.11323" lon="5.48984">
        <ele>276</ele>
        <time>2016-04-25T13:54:05Z</time>
      </trkpt>
      <trkpt lat="47.11324" lon="5.48977">
        <ele>277</ele>
        <time>2016-04-25T13:56:05Z</time>
      </trkpt>
      <trkpt lat="47.11328" lon="5.48973">
        <ele>277</ele>
        <time>2016-04-25T13:58:05Z</time>
      </trkpt>
      <trkpt lat="47.11334" lon="5.48962">
        <ele>279</ele>
        <time>2016-04-25T14:00:05Z</time>
      </trkpt>
      <trkpt lat="47.11339" lon="5.48949">
        <ele>280</ele>
        <time>2016-04-25T14:02:05Z</time>
      </trkpt>
      <trkpt lat="47.11346" lon="5.4894">
        <ele>281</ele>
        <time>2016-04-25T14:04:05Z</time>
      </trkpt>
      <trkpt lat="47.11355" lon="5.48932">
        <ele>282</ele>
        <time>2016-04-25T14:06:05Z</time>
      </trkpt>
      <trkpt lat="47.11364" lon="5.48908">
        <ele>284</ele>
        <time>2016-04-25T14:08:05Z</time>
      </trkpt>
      <trkpt lat="47.11367" lon="5.48886">
        <ele>285</ele>
        <time>2016-04-25T14:10:05Z</time>
      </trkpt>
      <trkpt lat="47.11373" lon="5.48876">
        <ele>286</ele>
        <time>2016-04-25T14:12:05Z</time>
      </trkpt>
      <trkpt lat="47.11387" lon="5.48866">
        <ele>288</ele>
        <time>2016-04-25T14:14:05Z</time>
      </trkpt>
      <trkpt lat="47.11397" lon="5.48864">
        <ele>288</ele>
        <time>2016-04-25T14:16:05Z</time>
      </trkpt>
      <trkpt lat="47.11399" lon="5.48861">
        <ele>289</ele>
        <time>2016-04-25T14:18:05Z</time>
      </trkpt>
      <trkpt lat="47.11404" lon="5.48864">
        <ele>289</ele>
        <time>2016-04-25T14:20:05Z</time>
      </trkpt>
      <trkpt lat="47.11409" lon="5.48863">
        <ele>289</ele>
        <time>2016-04-25T14:22:05Z</time>
      </trkpt>
      <trkpt lat="47.11419" lon="5.48858">
        <ele>290</ele>
        <time>2016-04-25T14:24:05Z</time>
      </trkpt>
      <trkpt lat="47.11445" lon="5.48843">
        <ele>294</ele>
        <time>2016-04-25T14:26:05Z</time>
      </trkpt>
      <trkpt lat="47.11456" lon="5.4884">
        <ele>296</ele>
        <time>2016-04-25T14:28:05Z</time>
      </trkpt>
      <trkpt lat="47.11464" lon="5.48835">
        <ele>297</ele>
        <time>2016-04-25T14:30:05Z</time>
      </trkpt>
      <trkpt lat="47.11468" lon="5.48828">
        <ele>298</ele>
        <time>2016-04-25T14:32:05Z</time>
      </trkpt>
      <trkpt lat="47.11475" lon="5.48825">
        <ele>299</ele>
        <time>2016-04-25T14:34:05Z</time>
      </trkpt>
      <trkpt lat="47.11486" lon="5.488">
        <ele>302</ele>
        <time>2016-04-25T14:36:05Z</time>
      </trkpt>
      <trkpt lat="47.11497" lon="5.48761">
        <ele>306</ele>
        <time>2016-04-25T14:38:05Z</time>
      </trkpt>
      <trkpt lat="47.1148" lon="5.48747">
        <ele>305</ele>
        <time>2016-04-25T14:40:05Z</time>
      </trkpt>
      <trkpt lat="47.11471" lon="5.48741">
        <ele>305</ele>
        <time>2016-04-25T14:42:05Z</time>
      </trkpt>
      <trkpt lat="47.11472" lon="5.48727">
        <ele>306</ele>
        <time>2016-04-25T14:44:05Z</time>
      </trkpt>
      <trkpt lat="47.11476" lon="5.48714">
        <ele>307</ele>
        <time>2016-04-25T14:46:05Z</time>
      </trkpt>
      <trkpt lat="47.11482" lon="5.48688">
        <ele>310</ele>
        <time>2016-04-25T14:48:05Z</time>
      </trkpt>
      <trkpt lat="47.11488" lon="5.48679">
        <ele>311</ele>
        <time>2016-04-25T14:50:05Z</time>
      </trkpt>
      <trkpt lat="47.11491" lon="5.48666">
        <ele>312</ele>
        <time>2016-04-25T14:52:05Z</time>
      </trkpt>
      <trkpt lat="47.11501" lon="5.4866">
        <ele>313</ele>
        <time>2016-04-25T14:54:05Z</time>
      </trkpt>
      <trkpt lat="47.11518" lon="5.48649">
        <ele>316</ele>
        <time>2016-04-25T14:56:05Z</time>
      </trkpt>
      <trkpt lat="47.11524" lon="5.4864">
        <ele>317</ele>
        <time>2016-04-25T14:58:05Z</time>
      </trkpt>
      <trkpt lat="47.11532" lon="5.48646">
        <ele>318</ele>
        <time>2016-04-25T15:00:05Z</time>
      </trkpt>
      <trkpt lat="47.11541" lon="5.48645">
        <ele>319</ele>
        <time>2016-04-25T15:02:05Z</time>
      </trkpt>
      <trkpt lat="47.11547" lon="5.48632">
        <ele>320</ele>
        <time>2016-04-25T15:04:05Z</time>
      </trkpt>
      <trkpt lat="47.11559" lon="5.4861">
        <ele>321</ele>
        <time>2016-04-25T15:06:05Z</time>
      </trkpt>
      <trkpt lat="47.11561" lon="5.48604">
        <ele>321</ele>
        <time>2016-04-25T15:08:05Z</time>
      </trkpt>
      <trkpt lat="47.11569" lon="5.48594">
        <ele>322</ele>
        <time>2016-04-25T15:10:05Z</time>
      </trkpt>
      <trkpt lat="47.11578" lon="5.48595">
        <ele>323</ele>
        <time>2016-04-25T15:12:05Z</time>
      </trkpt>
      <trkpt lat="47.11596" lon="5.486">
        <ele>323</ele>
        <time>2016-04-25T15:14:05Z</time>
      </trkpt>
      <trkpt lat="47.11605" lon="5.48606">
        <ele>323</ele>
        <time>2016-04-25T15:16:05Z</time>
      </trkpt>
      <trkpt lat="47.11642" lon="5.4864">
        <ele>323</ele>
        <time>2016-04-25T15:18:05Z</time>
      </trkpt>
      <trkpt lat="47.11659" lon="5.4865">
        <ele>323</ele>
        <time>2016-04-25T15:20:05Z</time>
      </trkpt>
      <trkpt lat="47.11663" lon="5.48662">
        <ele>323</ele>
        <time>2016-04-25T15:22:05Z</time>
      </trkpt>
      <trkpt lat="47.11673" lon="5.48665">
        <ele>322</ele>
        <time>2016-04-25T15:24:05Z</time>
      </trkpt>
      <trkpt lat="47.1171" lon="5.48685">
        <ele>315</ele>
        <time>2016-04-25T15:26:05Z</time>
      </trkpt>
      <trkpt lat="47.1172" lon="5.48684">
        <ele>313</ele>
        <time>2016-04-25T15:28:05Z</time>
      </trkpt>
      <trkpt lat="47.11757" lon="5.48709">
        <ele>308</ele>
        <time>2016-04-25T15:30:05Z</time>
      </trkpt>
      <trkpt lat="47.11766" lon="5.48709">
        <ele>308</ele>
        <time>2016-04-25T15:32:05Z</time>
      </trkpt>
      <trkpt lat="47.11783" lon="5.48723">
        <ele>308</ele>
        <time>2016-04-25T15:34:05Z</time>
      </trkpt>
      <trkpt lat="47.11792" lon="5.48725">
        <ele>308</ele>
        <time>2016-04-25T15:36:05Z</time>
      </trkpt>
      <trkpt lat="47.11838" lon="5.48743">
        <ele>307</ele>
        <time>2016-04-25T15:38:05Z</time>
      </trkpt>
      <trkpt lat="47.11852" lon="5.48746">
        <ele>308</ele>
        <time>2016-04-25T15:40:05Z</time>
      </trkpt>
      <trkpt lat="47.11874" lon="5.48749">
        <ele>309</ele>
        <time>2016-04-25T15:42:05Z</time>
      </trkpt>
      <trkpt lat="47.11889" lon="5.48748">
        <ele>310</ele>
        <time>2016-04-25T15:44:05Z</time>
      </trkpt>
      <trkpt lat="47.11895" lon="5.48748">
        <ele>310</ele>
        <time>2016-04-25T15:46:05Z</time>
      </trkpt>
      <trkpt lat="47.11899" lon="5.48749">
        <ele>310</ele>
        <time>2016-04-25T15:48:05Z</time>
      </trkpt>
      <trkpt lat="47.1191" lon="5.4875">
        <ele>311</ele>
        <time>2016-04-25T15:50:05Z</time>
      </trkpt>
      <trkpt lat="47.11916" lon="5.4875">
        <ele>311</ele>
        <time>2016-04-25T15:52:05Z</time>
      </trkpt>
      <trkpt lat="47.11932" lon="5.48753">
        <ele>312</ele>
        <time>2016-04-25T15:54:05Z</time>
      </trkpt>
      <trkpt lat="47.11951" lon="5.48757">
        <ele>313</ele>
        <time>2016-04-25T15:56:05Z</time>
      </trkpt>
      <trkpt lat="47.11999" lon="5.48766">
        <ele>317</ele>
        <time>2016-04-25T15:58:05Z</time>
      </trkpt>
      <trkpt lat="47.12027" lon="5.48772">
        <ele>319</ele>
        <time>2016-04-25T16:00:05Z</time>
      </trkpt>
      <trkpt lat="47.12037" lon="5.48772">
        <ele>319</ele>
        <time>2016-04-25T16:02:05Z</time>
      </trkpt>
      <trkpt lat="47.12046" lon="5.48774">
        <ele>320</ele>
        <time>2016-04-25T16:04:05Z</time>
      </trkpt>
      <trkpt lat="47.12076" lon="5.48772">
        <ele>322</ele>
        <time>2016-04-25T16:06:05Z</time>
      </trkpt>
      <trkpt lat="47.12081" lon="5.48771">
        <ele>323</ele>
        <time>2016-04-25T16:08:05Z</time>
      </trkpt>
      <trkpt lat="47.12103" lon="5.48769">
        <ele>323</ele>
        <time>2016-04-25T16:10:05Z</time>
      </trkpt>
      <trkpt lat="47.12108" lon="5.48768">
        <ele>323</ele>
        <time>2016-04-25T16:12:05Z</time>
      </trkpt>
      <trkpt lat="47.12114" lon="5.48768">
        <ele>323</ele>
        <time>2016-04-25T16:14:05Z</time>
      </trkpt>
      <trkpt lat="47.12125" lon="5.48768">
        <ele>323</ele>
        <time>2016-04-25T16:16:05Z</time>
      </trkpt>
      <trkpt lat="47.1214" lon="5.48766">
        <ele>323</ele>
        <time>2016-04-25T16:18:05Z</time>
      </trkpt>
      <trkpt lat="47.12155" lon="5.48765">
        <ele>324</ele>
        <time>2016-04-25T16:20:05Z</time>
      </trkpt>
      <trkpt lat="47.12187" lon="5.48753">
        <ele>325</ele>
        <time>2016-04-25T16:22:05Z</time>
      </trkpt>
      <trkpt lat="47.12197" lon="5.48753">
        <ele>324</ele>
        <time>2016-04-25T16:24:05Z</time>
      </trkpt>
      <trkpt lat="47.12213" lon="5.48748">
        <ele>324</ele>
        <time>2016-04-25T16:26:05Z</time>
      </trkpt>
      <trkpt lat="47.12243" lon="5.48755">
        <ele>322</ele>
        <time>2016-04-25T16:28:05Z</time>
      </trkpt>
      <trkpt lat="47.12297" lon="5.48803">
        <ele>321</ele>
        <time>2016-04-25T16:30:05Z</time>
      </trkpt>
      <trkpt lat="47.12308" lon="5.48825">
        <ele>321</ele>
        <time>2016-04-25T16:32:05Z</time>
      </trkpt>
      <trkpt lat="47.12311" lon="5.48866">
        <ele>320</ele>
        <time>2016-04-25T16:34:05Z</time>
      </trkpt>
      <trkpt lat="47.12315" lon="5.48878">
        <ele>321</ele>
        <time>2016-04-25T16:36:05Z</time>
      </trkpt>
      <trkpt lat="47.12325" lon="5.48928">
        <ele>321</ele>
        <time>2016-04-25T16:38:05Z</time>
      </trkpt>
      <trkpt lat="47.12328" lon="5.48942">
        <ele>321</ele>
        <time>2016-04-25T16:40:05Z</time>
      </trkpt>
      <trkpt lat="47.1233" lon="5.48955">
        <ele>321</ele>
        <time>2016-04-25T16:42:05Z</time>
      </trkpt>
      <trkpt lat="47.12342" lon="5.49008">
        <ele>321</ele>
        <time>2016-04-25T16:44:05Z</time>
      </trkpt>
      <trkpt lat="47.12349" lon="5.49033">
        <ele>321</ele>
        <time>2016-04-25T16:46:05Z</time>
      </trkpt>
      <trkpt lat="47.1235" lon="5.49047">
        <ele>320</ele>
        <time>2016-04-25T16:48:05Z</time>
      </trkpt>
      <trkpt lat="47.12373" lon="5.49075">
        <ele>322</ele>
        <time>2016-04-25T16:50:05Z</time>
      </trkpt>
      <trkpt lat="47.12453" lon="5.4915">
        <ele>323</ele>
        <time>2016-04-25T16:52:05Z</time>
      </trkpt>
      <trkpt lat="47.12472" lon="5.49159">
        <ele>323</ele>
        <time>2016-04-25T16:54:05Z</time>
      </trkpt>
      <trkpt lat="47.12499" lon="5.49176">
        <ele>322</ele>
        <time>2016-04-25T16:56:05Z</time>
      </trkpt>
      <trkpt lat="47.12526" lon="5.4919">
        <ele>321</ele>
        <time>2016-04-25T16:58:05Z</time>
      </trkpt>
      <trkpt lat="47.12535" lon="5.49183">
        <ele>322</ele>
        <time>2016-04-25T17:00:05Z</time>
      </trkpt>
      <trkpt lat="47.12542" lon="5.49175">
        <ele>323</ele>
        <time>2016-04-25T17:02:05Z</time>
      </trkpt>
      <trkpt lat="47.12551" lon="5.49171">
        <ele>323</ele>
        <time>2016-04-25T17:04:05Z</time>
      </trkpt>
      <trkpt lat="47.12561" lon="5.49168">
        <ele>324</ele>
        <time>2016-04-25T17:06:05Z</time>
      </trkpt>
      <trkpt lat="47.12599" lon="5.49177">
        <ele>324</ele>
        <time>2016-04-25T17:08:05Z</time>
      </trkpt>
      <trkpt lat="47.12619" lon="5.49179">
        <ele>324</ele>
        <time>2016-04-25T17:10:05Z</time>
      </trkpt>
      <trkpt lat="47.12639" lon="5.49209">
        <ele>321</ele>
        <time>2016-04-25T17:12:05Z</time>
      </trkpt>
      <trkpt lat="47.12644" lon="5.49221">
        <ele>320</ele>
        <time>2016-04-25T17:14:05Z</time>
      </trkpt>
      <trkpt lat="47.12661" lon="5.49254">
        <ele>317</ele>
        <time>2016-04-25T17:16:05Z</time>
      </trkpt>
      <trkpt lat="47.12672" lon="5.49278">
        <ele>314</ele>
        <time>2016-04-25T17:18:05Z</time>
      </trkpt>
      <trkpt lat="47.12671" lon="5.49292">
        <ele>313</ele>
        <time>2016-04-25T17:20:05Z</time>
      </trkpt>
      <trkpt lat="47.12674" lon="5.49305">
        <ele>311</ele>
        <time>2016-04-25T17:22:05Z</time>
      </trkpt>
      <trkpt lat="47.12681" lon="5.49312">
        <ele>311</ele>
        <time>2016-04-25T17:24:05Z</time>
      </trkpt>
      <trkpt lat="47.12705" lon="5.49333">
        <ele>309</ele>
        <time>2016-04-25T17:26:05Z</time>
      </trkpt>
      <trkpt lat="47.12712" lon="5.49343">
        <ele>308</ele>
        <time>2016-04-25T17:28:05Z</time>
      </trkpt>
      <trkpt lat="47.1273" lon="5.49352">
        <ele>307</ele>
        <time>2016-04-25T17:30:05Z</time>
      </trkpt>
      <trkpt lat="47.1274" lon="5.49356">
        <ele>307</ele>
        <time>2016-04-25T17:32:05Z</time>
      </trkpt>
      <trkpt lat="47.12745" lon="5.4937">
        <ele>306</ele>
        <time>2016-04-25T17:34:05Z</time>
      </trkpt>
      <trkpt lat="47.12765" lon="5.4938">
        <ele>304</ele>
        <time>2016-04-25T17:36:05Z</time>
      </trkpt>
      <trkpt lat="47.12784" lon="5.49387">
        <ele>304</ele>
        <time>2016-04-25T17:38:05Z</time>
      </trkpt>
      <trkpt lat="47.12818" lon="5.49412">
        <ele>302</ele>
        <time>2016-04-25T17:40:05Z</time>
      </trkpt>
      <trkpt lat="47.12825" lon="5.49422">
        <ele>301</ele>
        <time>2016-04-25T17:42:05Z</time>
      </trkpt>
      <trkpt lat="47.12833" lon="5.49427">
        <ele>301</ele>
        <time>2016-04-25T17:44:05Z</time>
      </trkpt>
      <trkpt lat="47.12837" lon="5.49439">
        <ele>300</ele>
        <time>2016-04-25T17:46:05Z</time>
      </trkpt>
      <trkpt lat="47.12848" lon="5.49442">
        <ele>299</ele>
        <time>2016-04-25T17:48:05Z</time>
      </trkpt>
      <trkpt lat="47.12865" lon="5.49459">
        <ele>297</ele>
        <time>2016-04-25T17:50:05Z</time>
      </trkpt>
      <trkpt lat="47.12874" lon="5.49457">
        <ele>297</ele>
        <time>2016-04-25T17:52:05Z</time>
      </trkpt>
      <trkpt lat="47.12891" lon="5.49471">
        <ele>295</ele>
        <time>2016-04-25T17:54:05Z</time>
      </trkpt>
      <trkpt lat="47.129" lon="5.49474">
        <ele>295</ele>
        <time>2016-04-25T17:56:05Z</time>
      </trkpt>
      <trkpt lat="47.12905" lon="5.49472">
        <ele>295</ele>
        <time>2016-04-25T17:58:05Z</time>
      </trkpt>
      <trkpt lat="47.12911" lon="5.49486">
        <ele>294</ele>
        <time>2016-04-25T18:00:05Z</time>
      </trkpt>
      <trkpt lat="47.12927" lon="5.49504">
        <ele>291</ele>
        <time>2016-04-25T18:02:05Z</time>
      </trkpt>
      <trkpt lat="47.1295" lon="5.49506">
        <ele>291</ele>
        <time>2016-04-25T18:04:05Z</time>
      </trkpt>
      <trkpt lat="47.12955" lon="5.49518">
        <ele>290</ele>
        <time>2016-04-25T18:06:05Z</time>
      </trkpt>
      <trkpt lat="47.12968" lon="5.49539">
        <ele>287</ele>
        <time>2016-04-25T18:08:05Z</time>
      </trkpt>
      <trkpt lat="47.12973" lon="5.49551">
        <ele>286</ele>
        <time>2016-04-25T18:10:05Z</time>
      </trkpt>
      <trkpt lat="47.12981" lon="5.49557">
        <ele>285</ele>
        <time>2016-04-25T18:12:05Z</time>
      </trkpt>
      <trkpt lat="47.1299" lon="5.49581">
        <ele>282</ele>
        <time>2016-04-25T18:14:05Z</time>
      </trkpt>
      <trkpt lat="47.12999" lon="5.49584">
        <ele>282</ele>
        <time>2016-04-25T18:16:05Z</time>
      </trkpt>
      <trkpt lat="47.13008" lon="5.49588">
        <ele>282</ele>
        <time>2016-04-25T18:18:05Z</time>
      </trkpt>
      <trkpt lat="47.13018" lon="5.49587">
        <ele>282</ele>
        <time>2016-04-25T18:20:05Z</time>
      </trkpt>
      <trkpt lat="47.13028" lon="5.49592">
        <ele>281</ele>
        <time>2016-04-25T18:22:05Z</time>
      </trkpt>
      <trkpt lat="47.13041" lon="5.4963">
        <ele>278</ele>
        <time>2016-04-25T18:24:05Z</time>
      </trkpt>
      <trkpt lat="47.13042" lon="5.49644">
        <ele>276</ele>
        <time>2016-04-25T18:26:05Z</time>
      </trkpt>
      <trkpt lat="47.13038" lon="5.49659">
        <ele>275</ele>
        <time>2016-04-25T18:28:05Z</time>
      </trkpt>
      <trkpt lat="47.13026" lon="5.49665">
        <ele>274</ele>
        <time>2016-04-25T18:30:05Z</time>
      </trkpt>
      <trkpt lat="47.13023" lon="5.49671">
        <ele>274</ele>
        <time>2016-04-25T18:32:05Z</time>
      </trkpt>
      <trkpt lat="47.1302" lon="5.49686">
        <ele>273</ele>
        <time>2016-04-25T18:34:05Z</time>
      </trkpt>
      <trkpt lat="47.13014" lon="5.49698">
        <ele>273</ele>
        <time>2016-04-25T18:36:05Z</time>
      </trkpt>
      <trkpt lat="47.13007" lon="5.49706">
        <ele>273</ele>
        <time>2016-04-25T18:38:05Z</time>
      </trkpt>
      <trkpt lat="47.13004" lon="5.49712">
        <ele>273</ele>
        <time>2016-04-25T18:40:05Z</time>
      </trkpt>
      <trkpt lat="47.12994" lon="5.49717">
        <ele>273</ele>
        <time>2016-04-25T18:42:05Z</time>
      </trkpt>
      <trkpt lat="47.12989" lon="5.49718">
        <ele>273</ele>
        <time>2016-04-25T18:44:05Z</time>
      </trkpt>
      <trkpt lat="47.12963" lon="5.49714">
        <ele>275</ele>
        <time>2016-04-25T18:46:05Z</time>
      </trkpt>
      <trkpt lat="47.1292" lon="5.49719">
        <ele>277</ele>
        <time>2016-04-25T18:48:05Z</time>
      </trkpt>
      <trkpt lat="47.12913" lon="5.49728">
        <ele>277</ele>
        <time>2016-04-25T18:50:05Z</time>
      </trkpt>
      <trkpt lat="47.12905" lon="5.49743">
        <ele>276</ele>
        <time>2016-04-25T18:52:05Z</time>
      </trkpt>
      <trkpt lat="47.12892" lon="5.49775">
        <ele>275</ele>
        <time>2016-04-25T18:54:05Z</time>
      </trkpt>
      <trkpt lat="47.12875" lon="5.49805">
        <ele>274</ele>
        <time>2016-04-25T18:56:05Z</time>
      </trkpt>
      <trkpt lat="47.12873" lon="5.49828">
        <ele>273</ele>
        <time>2016-04-25T18:58:05Z</time>
      </trkpt>
      <trkpt lat="47.1288" lon="5.49891">
        <ele>270</ele>
        <time>2016-04-25T19:00:05Z</time>
      </trkpt>
      <trkpt lat="47.12878" lon="5.49918">
        <ele>268</ele>
        <time>2016-04-25T19:02:05Z</time>
      </trkpt>
      <trkpt lat="47.12871" lon="5.49928">
        <ele>267</ele>
        <time>2016-04-25T19:04:05Z</time>
      </trkpt>
      <trkpt lat="47.12863" lon="5.49936">
        <ele>266</ele>
        <time>2016-04-25T19:06:05Z</time>
      </trkpt>
      <trkpt lat="47.1284" lon="5.49945">
        <ele>264</ele>
        <time>2016-04-25T19:08:05Z</time>
      </trkpt>
      <trkpt lat="47.12829" lon="5.49944">
        <ele>263</ele>
        <time>2016-04-25T19:10:05Z</time>
      </trkpt>
      <trkpt lat="47.1282" lon="5.49942">
        <ele>262</ele>
        <time>2016-04-25T19:12:05Z</time>
      </trkpt>
      <trkpt lat="47.12811" lon="5.49938">
        <ele>261</ele>
        <time>2016-04-25T19:14:05Z</time>
      </trkpt>
      <trkpt lat="47.12803" lon="5.49932">
        <ele>261</ele>
        <time>2016-04-25T19:16:05Z</time>
      </trkpt>
      <trkpt lat="47.12771" lon="5.49897">
        <ele>260</ele>
        <time>2016-04-25T19:18:05Z</time>
      </trkpt>
      <trkpt lat="47.12756" lon="5.49883">
        <ele>260</ele>
        <time>2016-04-25T19:20:05Z</time>
      </trkpt>
      <trkpt lat="47.12748" lon="5.49876">
        <ele>260</ele>
        <time>2016-04-25T19:22:05Z</time>
      </trkpt>
      <trkpt lat="47.12739" lon="5.49867">
        <ele>259</ele>
        <time>2016-04-25T19:24:05Z</time>
      </trkpt>
      <trkpt lat="47.12727" lon="5.49857">
        <ele>259</ele>
        <time>2016-04-25T19:26:05Z</time>
      </trkpt>
      <trkpt lat="47.12698" lon="5.49828">
        <ele>256</ele>
        <time>2016-04-25T19:28:05Z</time>
      </trkpt>
      <trkpt lat="47.1269" lon="5.4982">
        <ele>256</ele>
        <time>2016-04-25T19:30:05Z</time>
      </trkpt>
      <trkpt lat="47.12682" lon="5.49811">
        <ele>256</ele>
        <time>2016-04-25T19:32:05Z</time>
      </trkpt>
      <trkpt lat="47.12673" lon="5.49804">
        <ele>256</ele>
        <time>2016-04-25T19:34:05Z</time>
      </trkpt>
      <trkpt lat="47.12663" lon="5.49803">
        <ele>255</ele>
        <time>2016-04-25T19:36:05Z</time>
      </trkpt>
      <trkpt lat="47.12654" lon="5.49808">
        <ele>254</ele>
        <time>2016-04-25T19:38:05Z</time>
      </trkpt>
      <trkpt lat="47.12644" lon="5.49825">
        <ele>252</ele>
        <time>2016-04-25T19:40:05Z</time>
      </trkpt>
      <trkpt lat="47.12637" lon="5.49845">
        <ele>251</ele>
        <time>2016-04-25T19:42:05Z</time>
      </trkpt>
      <trkpt lat="47.12635" lon="5.4985">
        <ele>251</ele>
        <time>2016-04-25T19:44:05Z</time>
      </trkpt>
      <trkpt lat="47.12631" lon="5.49856">
        <ele>250</ele>
        <time>2016-04-25T19:46:05Z</time>
      </trkpt>
      <trkpt lat="47.12629" lon="5.49862">
        <ele>250</ele>
        <time>2016-04-25T19:48:05Z</time>
      </trkpt>
      <trkpt lat="47.12603" lon="5.49923">
        <ele>249</ele>
        <time>2016-04-25T19:50:05Z</time>
      </trkpt>
      <trkpt lat="47.12602" lon="5.49931">
        <ele>249</ele>
        <time>2016-04-25T19:52:05Z</time>
      </trkpt>
      <trkpt lat="47.12607" lon="5.49982">
        <ele>249</ele>
        <time>2016-04-25T19:54:05Z</time>
      </trkpt>
      <trkpt lat="47.1261" lon="5.49989">
        <ele>249</ele>
        <time>2016-04-25T19:56:05Z</time>
      </trkpt>
      <trkpt lat="47.12612" lon="5.49996">
        <ele>249</ele>
        <time>2016-04-25T19:58:05Z</time>
      </trkpt>
      <trkpt lat="47.12614" lon="5.5001">
        <ele>249</ele>
        <time>2016-04-25T20:00:05Z</time>
      </trkpt>
      <trkpt lat="47.12625" lon="5.5008">
        <ele>247</ele>
        <time>2016-04-25T20:02:05Z</time>
      </trkpt>
      <trkpt lat="47.1263" lon="5.5012">
        <ele>247</ele>
        <time>2016-04-25T20:04:05Z</time>
      </trkpt>
      <trkpt lat="47.12632" lon="5.50176">
        <ele>247</ele>
        <time>2016-04-25T20:06:05Z</time>
      </trkpt>
      <trkpt lat="47.12632" lon="5.5018">
        <ele>248</ele>
        <time>2016-04-25T20:08:05Z</time>
      </trkpt>
      <trkpt lat="47.12634" lon="5.50183">
        <ele>248</ele>
        <time>2016-04-25T20:10:05Z</time>
      </trkpt>
      <trkpt lat="47.12642" lon="5.50189">
        <ele>248</ele>
        <time>2016-04-25T20:12:05Z</time>
      </trkpt>
      <trkpt lat="47.12645" lon="5.50195">
        <ele>248</ele>
        <time>2016-04-25T20:14:05Z</time>
      </trkpt>
      <trkpt lat="47.12643" lon="5.50201">
        <ele>248</ele>
        <time>2016-04-25T20:16:05Z</time>
      </trkpt>
      <trkpt lat="47.12634" lon="5.50219">
        <ele>249</ele>
        <time>2016-04-25T20:18:05Z</time>
      </trkpt>
      <trkpt lat="47.1263" lon="5.50224">
        <ele>249</ele>
        <time>2016-04-25T20:20:05Z</time>
      </trkpt>
      <trkpt lat="47.12629" lon="5.50231">
        <ele>249</ele>
        <time>2016-04-25T20:22:05Z</time>
      </trkpt>
      <trkpt lat="47.12626" lon="5.50235">
        <ele>249</ele>
        <time>2016-04-25T20:24:05Z</time>
      </trkpt>
      <trkpt lat="47.12624" lon="5.50249">
        <ele>250</ele>
        <time>2016-04-25T20:26:05Z</time>
      </trkpt>
      <trkpt lat="47.12615" lon="5.50254">
        <ele>250</ele>
        <time>2016-04-25T20:28:05Z</time>
      </trkpt>
      <trkpt lat="47.12617" lon="5.50268">
        <ele>250</ele>
        <time>2016-04-25T20:30:05Z</time>
      </trkpt>
      <trkpt lat="47.12625" lon="5.50276">
        <ele>250</ele>
        <time>2016-04-25T20:32:05Z</time>
      </trkpt>
      <trkpt lat="47.12628" lon="5.50289">
        <ele>250</ele>
        <time>2016-04-25T20:34:05Z</time>
      </trkpt>
      <trkpt lat="47.12635" lon="5.50297">
        <ele>250</ele>
        <time>2016-04-25T20:36:05Z</time>
      </trkpt>
      <trkpt lat="47.12644" lon="5.50305">
        <ele>251</ele>
        <time>2016-04-25T20:38:05Z</time>
      </trkpt>
      <trkpt lat="47.12685" lon="5.5031">
        <ele>252</ele>
        <time>2016-04-25T20:40:05Z</time>
      </trkpt>
      <trkpt lat="47.1269" lon="5.5031">
        <ele>252</ele>
        <time>2016-04-25T20:42:05Z</time>
      </trkpt>
      <trkpt lat="47.12695" lon="5.50311">
        <ele>252</ele>
        <time>2016-04-25T20:44:05Z</time>
      </trkpt>
      <trkpt lat="47.127" lon="5.50311">
        <ele>252</ele>
        <time>2016-04-25T20:46:05Z</time>
      </trkpt>
      <trkpt lat="47.1271" lon="5.50312">
        <ele>252</ele>
        <time>2016-04-25T20:48:05Z</time>
      </trkpt>
      <trkpt lat="47.12751" lon="5.50312">
        <ele>254</ele>
        <time>2016-04-25T20:50:05Z</time>
      </trkpt>
      <trkpt lat="47.12759" lon="5.50315">
        <ele>255</ele>
        <time>2016-04-25T20:52:05Z</time>
      </trkpt>
      <trkpt lat="47.12801" lon="5.50344">
        <ele>258</ele>
        <time>2016-04-25T20:54:05Z</time>
      </trkpt>
      <trkpt lat="47.1282" lon="5.50355">
        <ele>260</ele>
        <time>2016-04-25T20:56:05Z</time>
      </trkpt>
      <trkpt lat="47.12828" lon="5.50363">
        <ele>260</ele>
        <time>2016-04-25T20:58:05Z</time>
      </trkpt>
      <trkpt lat="47.12871" lon="5.50392">
        <ele>259</ele>
        <time>2016-04-25T21:00:05Z</time>
      </trkpt>
      <trkpt lat="47.12888" lon="5.504">
        <ele>260</ele>
        <time>2016-04-25T21:02:05Z</time>
      </trkpt>
      <trkpt lat="47.12896" lon="5.50407">
        <ele>260</ele>
        <time>2016-04-25T21:04:05Z</time>
      </trkpt>
      <trkpt lat="47.12905" lon="5.50414">
        <ele>260</ele>
        <time>2016-04-25T21:06:05Z</time>
      </trkpt>
      <trkpt lat="47.12923" lon="5.5043">
        <ele>260</ele>
        <time>2016-04-25T21:08:05Z</time>
      </trkpt>
      <trkpt lat="47.12933" lon="5.50429">
        <ele>260</ele>
        <time>2016-04-25T21:10:05Z</time>
      </trkpt>
      <trkpt lat="47.12951" lon="5.50437">
        <ele>261</ele>
        <time>2016-04-25T21:12:05Z</time>
      </trkpt>
      <trkpt lat="47.12972" lon="5.50442">
        <ele>262</ele>
        <time>2016-04-25T21:14:05Z</time>
      </trkpt>
      <trkpt lat="47.1298" lon="5.50447">
        <ele>262</ele>
        <time>2016-04-25T21:16:05Z</time>
      </trkpt>
      <trkpt lat="47.12984" lon="5.50452">
        <ele>262</ele>
        <time>2016-04-25T21:18:05Z</time>
      </trkpt>
      <trkpt lat="47.12994" lon="5.50457">
        <ele>263</ele>
        <time>2016-04-25T21:20:05Z</time>
      </trkpt>
      <trkpt lat="47.13004" lon="5.50462">
        <ele>263</ele>
        <time>2016-04-25T21:22:05Z</time>
      </trkpt>
      <trkpt lat="47.13025" lon="5.50476">
        <ele>264</ele>
        <time>2016-04-25T21:24:05Z</time>
      </trkpt>
      <trkpt lat="47.13071" lon="5.50495">
        <ele>266</ele>
        <time>2016-04-25T21:26:05Z</time>
      </trkpt>
      <trkpt lat="47.13107" lon="5.50521">
        <ele>268</ele>
        <time>2016-04-25T21:28:05Z</time>
      </trkpt>
      <trkpt lat="47.13116" lon="5.50527">
        <ele>268</ele>
        <time>2016-04-25T21:30:05Z</time>
      </trkpt>
      <trkpt lat="47.13152" lon="5.50543">
        <ele>269</ele>
        <time>2016-04-25T21:32:05Z</time>
      </trkpt>
      <trkpt lat="47.1318" lon="5.50557">
        <ele>269</ele>
        <time>2016-04-25T21:34:05Z</time>
      </trkpt>
      <trkpt lat="47.13198" lon="5.50565">
        <ele>270</ele>
        <time>2016-04-25T21:36:05Z</time>
      </trkpt>
      <trkpt lat="47.13225" lon="5.50576">
        <ele>270</ele>
        <time>2016-04-25T21:38:05Z</time>
      </trkpt>
      <trkpt lat="47.13243" lon="5.50583">
        <ele>270</ele>
        <time>2016-04-25T21:40:05Z</time>
      </trkpt>
      <trkpt lat="47.13263" lon="5.50588">
        <ele>271</ele>
        <time>2016-04-25T21:42:05Z</time>
      </trkpt>
      <trkpt lat="47.133" lon="5.506">
        <ele>272</ele>
        <time>2016-04-25T21:44:05Z</time>
      </trkpt>
      <trkpt lat="47.13339" lon="5.50609">
        <ele>273</ele>
        <time>2016-04-25T21:46:05Z</time>
      </trkpt>
      <trkpt lat="47.13376" lon="5.5061">
        <ele>274</ele>
        <time>2016-04-25T21:48:05Z</time>
      </trkpt>
      <trkpt lat="47.1338" lon="5.50611">
        <ele>274</ele>
        <time>2016-04-25T21:50:05Z</time>
      </trkpt>
      <trkpt lat="47.13385" lon="5.5061">
        <ele>274</ele>
        <time>2016-04-25T21:52:05Z</time>
      </trkpt>
      <trkpt lat="47.1339" lon="5.50609">
        <ele>274</ele>
        <time>2016-04-25T21:54:05Z</time>
      </trkpt>
      <trkpt lat="47.13401" lon="5.50608">
        <ele>275</ele>
        <time>2016-04-25T21:56:05Z</time>
      </trkpt>
      <trkpt lat="47.1342" lon="5.50608">
        <ele>275</ele>
        <time>2016-04-25T21:58:05Z</time>
      </trkpt>
      <trkpt lat="47.1343" lon="5.50607">
        <ele>275</ele>
        <time>2016-04-25T22:00:05Z</time>
      </trkpt>
      <trkpt lat="47.1344" lon="5.50607">
        <ele>275</ele>
        <time>2016-04-25T22:02:05Z</time>
      </trkpt>
      <trkpt lat="47.13467" lon="5.50618">
        <ele>274</ele>
        <time>2016-04-25T22:04:05Z</time>
      </trkpt>
      <trkpt lat="47.13487" lon="5.50623">
        <ele>274</ele>
        <time>2016-04-25T22:06:05Z</time>
      </trkpt>
      <trkpt lat="47.13505" lon="5.50631">
        <ele>274</ele>
        <time>2016-04-25T22:08:05Z</time>
      </trkpt>
      <trkpt lat="47.13514" lon="5.50635">
        <ele>273</ele>
        <time>2016-04-25T22:10:05Z</time>
      </trkpt>
      <trkpt lat="47.13551" lon="5.50649">
        <ele>271</ele>
        <time>2016-04-25T22:12:05Z</time>
      </trkpt>
      <trkpt lat="47.1356" lon="5.50653">
        <ele>271</ele>
        <time>2016-04-25T22:14:05Z</time>
      </trkpt>
      <trkpt lat="47.13576" lon="5.50657">
        <ele>270</ele>
        <time>2016-04-25T22:16:05Z</time>
      </trkpt>
      <trkpt lat="47.13585" lon="5.50659">
        <ele>270</ele>
        <time>2016-04-25T22:18:05Z</time>
      </trkpt>
      <trkpt lat="47.13594" lon="5.50666">
        <ele>269</ele>
        <time>2016-04-25T22:20:05Z</time>
      </trkpt>
      <trkpt lat="47.13595" lon="5.50679">
        <ele>268</ele>
        <time>2016-04-25T22:22:05Z</time>
      </trkpt>
      <trkpt lat="47.13597" lon="5.50674">
        <ele>268</ele>
        <time>2016-04-25T22:24:05Z</time>
      </trkpt>
      <trkpt lat="47.136" lon="5.50731">
        <ele>268</ele>
        <time>2016-04-25T22:26:05Z</time>
      </trkpt>
      <trkpt lat="47.13602" lon="5.50738">
        <ele>267</ele>
        <time>2016-04-25T22:28:05Z</time>
      </trkpt>
      <trkpt lat="47.13604" lon="5.50745">
        <ele>267</ele>
        <time>2016-04-25T22:30:05Z</time>
      </trkpt>
      <trkpt lat="47.13624" lon="5.50783">
        <ele>266</ele>
        <time>2016-04-25T22:32:05Z</time>
      </trkpt>
      <trkpt lat="47.13629" lon="5.50787">
        <ele>266</ele>
        <time>2016-04-25T22:34:05Z</time>
      </trkpt>
      <trkpt lat="47.13643" lon="5.50817">
        <ele>266</ele>
        <time>2016-04-25T22:36:05Z</time>
      </trkpt>
      <trkpt lat="47.13645" lon="5.50824">
        <ele>266</ele>
        <time>2016-04-25T22:38:05Z</time>
      </trkpt>
      <trkpt lat="47.13653" lon="5.50857">
        <ele>266</ele>
        <time>2016-04-25T22:40:05Z</time>
      </trkpt>
      <trkpt lat="47.13655" lon="5.50864">
        <ele>266</ele>
        <time>2016-04-25T22:42:05Z</time>
      </trkpt>
      <trkpt lat="47.13656" lon="5.50872">
        <ele>266</ele>
        <time>2016-04-25T22:44:05Z</time>
      </trkpt>
      <trkpt lat="47.13663" lon="5.509">
        <ele>265</ele>
        <time>2016-04-25T22:46:05Z</time>
      </trkpt>
      <trkpt lat="47.13666" lon="5.50907">
        <ele>265</ele>
        <time>2016-04-25T22:48:05Z</time>
      </trkpt>
      <trkpt lat="47.13674" lon="5.50925">
        <ele>264</ele>
        <time>2016-04-25T22:50:05Z</time>
      </trkpt>
      <trkpt lat="47.13684" lon="5.5096">
        <ele>264</ele>
        <time>2016-04-25T22:52:05Z</time>
      </trkpt>
      <trkpt lat="47.13698" lon="5.51">
        <ele>264</ele>
        <time>2016-04-25T22:54:05Z</time>
      </trkpt>
      <trkpt lat="47.137" lon="5.51006">
        <ele>263</ele>
        <time>2016-04-25T22:56:05Z</time>
      </trkpt>
      <trkpt lat="47.13702" lon="5.51012">
        <ele>263</ele>
        <time>2016-04-25T22:58:05Z</time>
      </trkpt>
      <trkpt lat="47.13706" lon="5.51019">
        <ele>263</ele>
        <time>2016-04-25T23:00:05Z</time>
      </trkpt>
      <trkpt lat="47.13738" lon="5.51061">
        <ele>259</ele>
        <time>2016-04-25T23:02:05Z</time>
      </trkpt>
      <trkpt lat="47.13745" lon="5.51071">
        <ele>258</ele>
        <time>2016-04-25T23:04:05Z</time>
      </trkpt>
      <trkpt lat="47.13758" lon="5.51083">
        <ele>257</ele>
        <time>2016-04-25T23:06:05Z</time>
      </trkpt>
      <trkpt lat="47.13762" lon="5.51087">
        <ele>257</ele>
        <time>2016-04-25T23:08:05Z</time>
      </trkpt>
      <trkpt lat="47.13766" lon="5.5109">
        <ele>257</ele>
        <time>2016-04-25T23:10:05Z</time>
      </trkpt>
      <trkpt lat="47.1377" lon="5.51097">
        <ele>256</ele>
        <time>2016-04-25T23:12:05Z</time>
      </trkpt>
      <trkpt lat="47.13778" lon="5.51107">
        <ele>256</ele>
        <time>2016-04-25T23:14:05Z</time>
      </trkpt>
      <trkpt lat="47.13787" lon="5.51116">
        <ele>256</ele>
        <time>2016-04-25T23:16:05Z</time>
      </trkpt>
      <trkpt lat="47.13798" lon="5.51164">
        <ele>255</ele>
        <time>2016-04-25T23:18:05Z</time>
      </trkpt>
      <trkpt lat="47.13794" lon="5.51219">
        <ele>257</ele>
        <time>2016-04-25T23:20:05Z</time>
      </trkpt>
      <trkpt lat="47.13786" lon="5.51275">
        <ele>257</ele>
        <time>2016-04-25T23:22:05Z</time>
      </trkpt>
      <trkpt lat="47.13785" lon="5.51291">
        <ele>257</ele>
        <time>2016-04-25T23:24:05Z</time>
      </trkpt>
      <trkpt lat="47.13779" lon="5.51333">
        <ele>256</ele>
        <time>2016-04-25T23:26:05Z</time>
      </trkpt>
      <trkpt lat="47.13778" lon="5.51389">
        <ele>254</ele>
        <time>2016-04-25T23:28:05Z</time>
      </trkpt>
      <trkpt lat="47.13778" lon="5.51445">
        <ele>252</ele>
        <time>2016-04-25T23:30:05Z</time>
      </trkpt>
      <trkpt lat="47.13774" lon="5.51502">
        <ele>250</ele>
        <time>2016-04-25T23:32:05Z</time>
      </trkpt>
      <trkpt lat="47.13768" lon="5.51514">
        <ele>249</ele>
        <time>2016-04-25T23:34:05Z</time>
      </trkpt>
      <trkpt lat="47.13762" lon="5.5154">
        <ele>248</ele>
        <time>2016-04-25T23:36:05Z</time>
      </trkpt>
      <trkpt lat="47.13756" lon="5.51582">
        <ele>246</ele>
        <time>2016-04-25T23:38:05Z</time>
      </trkpt>
      <trkpt lat="47.13745" lon="5.51637">
        <ele>244</ele>
        <time>2016-04-25T23:40:05Z</time>
      </trkpt>
      <trkpt lat="47.13742" lon="5.51665">
        <ele>244</ele>
        <time>2016-04-25T23:42:05Z</time>
      </trkpt>
      <trkpt lat="47.13741" lon="5.5168">
        <ele>244</ele>
        <time>2016-04-25T23:44:05Z</time>
      </trkpt>
      <trkpt lat="47.13732" lon="5.51735">
        <ele>244</ele>
        <time>2016-04-25T23:46:05Z</time>
      </trkpt>
      <trkpt lat="47.13722" lon="5.5179">
        <ele>243</ele>
        <time>2016-04-25T23:48:05Z</time>
      </trkpt>
      <trkpt lat="47.1372" lon="5.51804">
        <ele>243</ele>
        <time>2016-04-25T23:50:05Z</time>
      </trkpt>
      <trkpt lat="47.13714" lon="5.51888">
        <ele>244</ele>
        <time>2016-04-25T23:52:05Z</time>
      </trkpt>
      <trkpt lat="47.13712" lon="5.51917">
        <ele>245</ele>
        <time>2016-04-25T23:54:05Z</time>
      </trkpt>
      <trkpt lat="47.13711" lon="5.5193">
        <ele>245</ele>
        <time>2016-04-25T23:56:05Z</time>
      </trkpt>
      <trkpt lat="47.13705" lon="5.51957">
        <ele>246</ele>
        <time>2016-04-25T23:58:05Z</time>
      </trkpt>
      <trkpt lat="47.13693" lon="5.51995">
        <ele>245</ele>
        <time>2016-04-26T00:00:05Z</time>
      </trkpt>
      <trkpt lat="47.13679" lon="5.52063">
        <ele>244</ele>
        <time>2016-04-26T00:02:05Z</time>
      </trkpt>
      <trkpt lat="47.13676" lon="5.52107">
        <ele>242</ele>
        <time>2016-04-26T00:04:05Z</time>
      </trkpt>
      <trkpt lat="47.13674" lon="5.52138">
        <ele>241</ele>
        <time>2016-04-26T00:06:05Z</time>
      </trkpt>
      <trkpt lat="47.13672" lon="5.52154">
        <ele>240</ele>
        <time>2016-04-26T00:08:05Z</time>
      </trkpt>
      <trkpt lat="47.13671" lon="5.52175">
        <ele>239</ele>
        <time>2016-04-26T00:10:05Z</time>
      </trkpt>
      <trkpt lat="47.13665" lon="5.5223">
        <ele>238</ele>
        <time>2016-04-26T00:12:05Z</time>
      </trkpt>
      <trkpt lat="47.13657" lon="5.52257">
        <ele>238</ele>
        <time>2016-04-26T00:14:05Z</time>
      </trkpt>
      <trkpt lat="47.13646" lon="5.52312">
        <ele>237</ele>
        <time>2016-04-26T00:16:05Z</time>
      </trkpt>
      <trkpt lat="47.13641" lon="5.52339">
        <ele>237</ele>
        <time>2016-04-26T00:18:05Z</time>
      </trkpt>
      <trkpt lat="47.13637" lon="5.52367">
        <ele>237</ele>
        <time>2016-04-26T00:20:05Z</time>
      </trkpt>
      <trkpt lat="47.13636" lon="5.52381">
        <ele>236</ele>
        <time>2016-04-26T00:22:05Z</time>
      </trkpt>
      <trkpt lat="47.13635" lon="5.52396">
        <ele>236</ele>
        <time>2016-04-26T00:24:05Z</time>
      </trkpt>
      <trkpt lat="47.13629" lon="5.52466">
        <ele>236</ele>
        <time>2016-04-26T00:26:05Z</time>
      </trkpt>
      <trkpt lat="47.13623" lon="5.52509">
        <ele>236</ele>
        <time>2016-04-26T00:28:05Z</time>
      </trkpt>
      <trkpt lat="47.13622" lon="5.52523">
        <ele>236</ele>
        <time>2016-04-26T00:30:05Z</time>
      </trkpt>
      <trkpt lat="47.13623" lon="5.52537">
        <ele>236</ele>
        <time>2016-04-26T00:32:05Z</time>
      </trkpt>
      <trkpt lat="47.13628" lon="5.52591">
        <ele>237</ele>
        <time>2016-04-26T00:34:05Z</time>
      </trkpt>
      <trkpt lat="47.13626" lon="5.52619">
        <ele>237</ele>
        <time>2016-04-26T00:36:05Z</time>
      </trkpt>
      <trkpt lat="47.13621" lon="5.52631">
        <ele>236</ele>
        <time>2016-04-26T00:38:05Z</time>
      </trkpt>
      <trkpt lat="47.1362" lon="5.52644">
        <ele>236</ele>
        <time>2016-04-26T00:40:05Z</time>
      </trkpt>
      <trkpt lat="47.13622" lon="5.52714">
        <ele>236</ele>
        <time>2016-04-26T00:42:05Z</time>
      </trkpt>
      <trkpt lat="47.13613" lon="5.52769">
        <ele>235</ele>
        <time>2016-04-26T00:44:05Z</time>
      </trkpt>
      <trkpt lat="47.1361" lon="5.52839">
        <ele>233</ele>
        <time>2016-04-26T00:46:05Z</time>
      </trkpt>
      <trkpt lat="47.13604" lon="5.52923">
        <ele>232</ele>
        <time>2016-04-26T00:48:05Z</time>
      </trkpt>
      <trkpt lat="47.13596" lon="5.52948">
        <ele>231</ele>
        <time>2016-04-26T00:50:05Z</time>
      </trkpt>
      <trkpt lat="47.13576" lon="5.52977">
        <ele>230</ele>
        <time>2016-04-26T00:52:05Z</time>
      </trkpt>
      <trkpt lat="47.13568" lon="5.52985">
        <ele>230</ele>
        <time>2016-04-26T00:54:05Z</time>
      </trkpt>
      <trkpt lat="47.13555" lon="5.53005">
        <ele>230</ele>
        <time>2016-04-26T00:56:05Z</time>
      </trkpt>
      <trkpt lat="47.13532" lon="5.53033">
        <ele>230</ele>
        <time>2016-04-26T00:58:05Z</time>
      </trkpt>
      <trkpt lat="47.13507" lon="5.53073">
        <ele>231</ele>
        <time>2016-04-26T01:00:05Z</time>
      </trkpt>
      <trkpt lat="47.13478" lon="5.53111">
        <ele>232</ele>
        <time>2016-04-26T01:02:05Z</time>
      </trkpt>
      <trkpt lat="47.13474" lon="5.53114">
        <ele>232</ele>
        <time>2016-04-26T01:04:05Z</time>
      </trkpt>
      <trkpt lat="47.13462" lon="5.53123">
        <ele>232</ele>
        <time>2016-04-26T01:06:05Z</time>
      </trkpt>
      <trkpt lat="47.13457" lon="5.53125">
        <ele>233</ele>
        <time>2016-04-26T01:08:05Z</time>
      </trkpt>
      <trkpt lat="47.13453" lon="5.53121">
        <ele>232</ele>
        <time>2016-04-26T01:10:05Z</time>
      </trkpt>
      <trkpt lat="47.13451" lon="5.53115">
        <ele>232</ele>
        <time>2016-04-26T01:12:05Z</time>
      </trkpt>
      <trkpt lat="47.13438" lon="5.53082">
        <ele>232</ele>
        <time>2016-04-26T01:14:05Z</time>
      </trkpt>
      <trkpt lat="47.13436" lon="5.53075">
        <ele>233</ele>
        <time>2016-04-26T01:16:05Z</time>
      </trkpt>
      <trkpt lat="47.13434" lon="5.53068">
        <ele>233</ele>
        <time>2016-04-26T01:18:05Z</time>
      </trkpt>
      <trkpt lat="47.1343" lon="5.53054">
        <ele>233</ele>
        <time>2016-04-26T01:20:05Z</time>
      </trkpt>
      <trkpt lat="47.13408" lon="5.53003">
        <ele>235</ele>
        <time>2016-04-26T01:22:05Z</time>
      </trkpt>
      <trkpt lat="47.13405" lon="5.52997">
        <ele>236</ele>
        <time>2016-04-26T01:24:05Z</time>
      </trkpt>
      <trkpt lat="47.13391" lon="5.52957">
        <ele>237</ele>
        <time>2016-04-26T01:26:05Z</time>
      </trkpt>
      <trkpt lat="47.13381" lon="5.52938">
        <ele>238</ele>
        <time>2016-04-26T01:28:05Z</time>
      </trkpt>
      <trkpt lat="47.13374" lon="5.5293">
        <ele>239</ele>
        <time>2016-04-26T01:30:05Z</time>
      </trkpt>
      <trkpt lat="47.1337" lon="5.52925">
        <ele>239</ele>
        <time>2016-04-26T01:32:05Z</time>
      </trkpt>
      <trkpt lat="47.13364" lon="5.52914">
        <ele>240</ele>
        <time>2016-04-26T01:34:05Z</time>
      </trkpt>
      <trkpt lat="47.13361" lon="5.52915">
        <ele>240</ele>
        <time>2016-04-26T01:36:05Z</time>
      </trkpt>
      <trkpt lat="47.13353" lon="5.52911">
        <ele>241</ele>
        <time>2016-04-26T01:38:05Z</time>
      </trkpt>
      <trkpt lat="47.13346" lon="5.529">
        <ele>241</ele>
        <time>2016-04-26T01:40:05Z</time>
      </trkpt>
      <trkpt lat="47.13337" lon="5.52882">
        <ele>241</ele>
        <time>2016-04-26T01:42:05Z</time>
      </trkpt>
      <trkpt lat="47.13315" lon="5.52856">
        <ele>242</ele>
        <time>2016-04-26T01:44:05Z</time>
      </trkpt>
      <trkpt lat="47.13284" lon="5.52827">
        <ele>245</ele>
        <time>2016-04-26T01:46:05Z</time>
      </trkpt>
      <trkpt lat="47.13276" lon="5.52819">
        <ele>245</ele>
        <time>2016-04-26T01:48:05Z</time>
      </trkpt>
      <trkpt lat="47.13273" lon="5.52814">
        <ele>245</ele>
        <time>2016-04-26T01:50:05Z</time>
      </trkpt>
      <trkpt lat="47.13255" lon="5.52802">
        <ele>245</ele>
        <time>2016-04-26T01:52:05Z</time>
      </trkpt>
      <trkpt lat="47.13238" lon="5.52787">
        <ele>244</ele>
        <time>2016-04-26T01:54:05Z</time>
      </trkpt>
      <trkpt lat="47.13191" lon="5.5274">
        <ele>241</ele>
        <time>2016-04-26T01:56:05Z</time>
      </trkpt>
      <trkpt lat="47.13179" lon="5.52729">
        <ele>242</ele>
        <time>2016-04-26T01:58:05Z</time>
      </trkpt>
      <trkpt lat="47.13166" lon="5.52715">
        <ele>241</ele>
        <time>2016-04-26T02:00:05Z</time>
      </trkpt>
      <trkpt lat="47.13148" lon="5.52701">
        <ele>242</ele>
        <time>2016-04-26T02:02:05Z</time>
      </trkpt>
      <trkpt lat="47.1314" lon="5.52693">
        <ele>242</ele>
        <time>2016-04-26T02:04:05Z</time>
      </trkpt>
      <trkpt lat="47.13137" lon="5.52688">
        <ele>242</ele>
        <time>2016-04-26T02:06:05Z</time>
      </trkpt>
      <trkpt lat="47.1313" lon="5.52686">
        <ele>243</ele>
        <time>2016-04-26T02:08:05Z</time>
      </trkpt>
      <trkpt lat="47.13122" lon="5.52679">
        <ele>243</ele>
        <time>2016-04-26T02:10:05Z</time>
      </trkpt>
      <trkpt lat="47.1311" lon="5.52666">
        <ele>243</ele>
        <time>2016-04-26T02:12:05Z</time>
      </trkpt>
      <trkpt lat="47.13094" lon="5.52651">
        <ele>244</ele>
        <time>2016-04-26T02:14:05Z</time>
      </trkpt>
      <trkpt lat="47.13069" lon="5.52626">
        <ele>244</ele>
        <time>2016-04-26T02:16:05Z</time>
      </trkpt>
      <trkpt lat="47.13056" lon="5.52615">
        <ele>245</ele>
        <time>2016-04-26T02:18:05Z</time>
      </trkpt>
      <trkpt lat="47.13052" lon="5.5261">
        <ele>245</ele>
        <time>2016-04-26T02:20:05Z</time>
      </trkpt>
      <trkpt lat="47.13023" lon="5.52579">
        <ele>245</ele>
        <time>2016-04-26T02:22:05Z</time>
      </trkpt>
      <trkpt lat="47.1302" lon="5.52574">
        <ele>245</ele>
        <time>2016-04-26T02:24:05Z</time>
      </trkpt>
      <trkpt lat="47.13016" lon="5.52569">
        <ele>245</ele>
        <time>2016-04-26T02:26:05Z</time>
      </trkpt>
      <trkpt lat="47.13012" lon="5.52565">
        <ele>245</ele>
        <time>2016-04-26T02:28:05Z</time>
      </trkpt>
      <trkpt lat="47.13004" lon="5.52554">
        <ele>245</ele>
        <time>2016-04-26T02:30:05Z</time>
      </trkpt>
      <trkpt lat="47.12997" lon="5.52544">
        <ele>245</ele>
        <time>2016-04-26T02:32:05Z</time>
      </trkpt>
      <trkpt lat="47.12979" lon="5.52516">
        <ele>246</ele>
        <time>2016-04-26T02:34:05Z</time>
      </trkpt>
      <trkpt lat="47.12971" lon="5.52505">
        <ele>246</ele>
        <time>2016-04-26T02:36:05Z</time>
      </trkpt>
      <trkpt lat="47.12965" lon="5.52493">
        <ele>247</ele>
        <time>2016-04-26T02:38:05Z</time>
      </trkpt>
      <trkpt lat="47.12955" lon="5.52474">
        <ele>247</ele>
        <time>2016-04-26T02:40:05Z</time>
      </trkpt>
      <trkpt lat="47.12941" lon="5.52455">
        <ele>248</ele>
        <time>2016-04-26T02:42:05Z</time>
      </trkpt>
      <trkpt lat="47.12939" lon="5.52449">
        <ele>248</ele>
        <time>2016-04-26T02:44:05Z</time>
      </trkpt>
      <trkpt lat="47.12935" lon="5.52445">
        <ele>248</ele>
        <time>2016-04-26T02:46:05Z</time>
      </trkpt>
      <trkpt lat="47.12932" lon="5.52439">
        <ele>248</ele>
        <time>2016-04-26T02:48:05Z</time>
      </trkpt>
      <trkpt lat="47.12929" lon="5.52434">
        <ele>249</ele>
        <time>2016-04-26T02:50:05Z</time>
      </trkpt>
      <trkpt lat="47.12922" lon="5.52422">
        <ele>249</ele>
        <time>2016-04-26T02:52:05Z</time>
      </trkpt>
      <trkpt lat="47.12916" lon="5.52409">
        <ele>248</ele>
        <time>2016-04-26T02:54:05Z</time>
      </trkpt>
      <trkpt lat="47.12912" lon="5.52404">
        <ele>248</ele>
        <time>2016-04-26T02:56:05Z</time>
      </trkpt>
      <trkpt lat="47.12895" lon="5.52373">
        <ele>247</ele>
        <time>2016-04-26T02:58:05Z</time>
      </trkpt>
      <trkpt lat="47.12885" lon="5.52353">
        <ele>246</ele>
        <time>2016-04-26T03:00:05Z</time>
      </trkpt>
      <trkpt lat="47.12882" lon="5.52349">
        <ele>246</ele>
        <time>2016-04-26T03:02:05Z</time>
      </trkpt>
      <trkpt lat="47.12875" lon="5.52337">
        <ele>246</ele>
        <time>2016-04-26T03:04:05Z</time>
      </trkpt>
      <trkpt lat="47.1287" lon="5.52331">
        <ele>247</ele>
        <time>2016-04-26T03:06:05Z</time>
      </trkpt>
      <trkpt lat="47.12841" lon="5.52285">
        <ele>246</ele>
        <time>2016-04-26T03:08:05Z</time>
      </trkpt>
      <trkpt lat="47.12824" lon="5.52259">
        <ele>246</ele>
        <time>2016-04-26T03:10:05Z</time>
      </trkpt>
      <trkpt lat="47.1282" lon="5.52255">
        <ele>246</ele>
        <time>2016-04-26T03:12:05Z</time>
      </trkpt>
      <trkpt lat="47.12796" lon="5.52219">
        <ele>244</ele>
        <time>2016-04-26T03:14:05Z</time>
      </trkpt>
      <trkpt lat="47.12772" lon="5.52198">
        <ele>244</ele>
        <time>2016-04-26T03:16:05Z</time>
      </trkpt>
      <trkpt lat="47.12764" lon="5.52192">
        <ele>244</ele>
        <time>2016-04-26T03:18:05Z</time>
      </trkpt>
      <trkpt lat="47.12752" lon="5.52182">
        <ele>244</ele>
        <time>2016-04-26T03:20:05Z</time>
      </trkpt>
      <trkpt lat="47.12719" lon="5.5216">
        <ele>243</ele>
        <time>2016-04-26T03:22:05Z</time>
      </trkpt>
      <trkpt lat="47.12714" lon="5.52158">
        <ele>243</ele>
        <time>2016-04-26T03:24:05Z</time>
      </trkpt>
      <trkpt lat="47.12691" lon="5.52142">
        <ele>242</ele>
        <time>2016-04-26T03:26:05Z</time>
      </trkpt>
      <trkpt lat="47.12687" lon="5.52137">
        <ele>242</ele>
        <time>2016-04-26T03:28:05Z</time>
      </trkpt>
      <trkpt lat="47.12677" lon="5.52128">
        <ele>242</ele>
        <time>2016-04-26T03:30:05Z</time>
      </trkpt>
      <trkpt lat="47.12642" lon="5.521">
        <ele>240</ele>
        <time>2016-04-26T03:32:05Z</time>
      </trkpt>
      <trkpt lat="47.12616" lon="5.52082">
        <ele>239</ele>
        <time>2016-04-26T03:34:05Z</time>
      </trkpt>
      <trkpt lat="47.12615" lon="5.52086">
        <ele>239</ele>
        <time>2016-04-26T03:36:05Z</time>
      </trkpt>
      <trkpt lat="47.12611" lon="5.52079">
        <ele>239</ele>
        <time>2016-04-26T03:38:05Z</time>
      </trkpt>
      <trkpt lat="47.12606" lon="5.52074">
        <ele>239</ele>
        <time>2016-04-26T03:40:05Z</time>
      </trkpt>
      <trkpt lat="47.12581" lon="5.52042">
        <ele>239</ele>
        <time>2016-04-26T03:42:05Z</time>
      </trkpt>
      <trkpt lat="47.12576" lon="5.52037">
        <ele>239</ele>
        <time>2016-04-26T03:44:05Z</time>
      </trkpt>
      <trkpt lat="47.12565" lon="5.52021">
        <ele>239</ele>
        <time>2016-04-26T03:46:05Z</time>
      </trkpt>
      <trkpt lat="47.12539" lon="5.51988">
        <ele>240</ele>
        <time>2016-04-26T03:48:05Z</time>
      </trkpt>
      <trkpt lat="47.12536" lon="5.51982">
        <ele>240</ele>
        <time>2016-04-26T03:50:05Z</time>
      </trkpt>
      <trkpt lat="47.12504" lon="5.51942">
        <ele>242</ele>
        <time>2016-04-26T03:52:05Z</time>
      </trkpt>
      <trkpt lat="47.12474" lon="5.51913">
        <ele>243</ele>
        <time>2016-04-26T03:54:05Z</time>
      </trkpt>
      <trkpt lat="47.12464" lon="5.51896">
        <ele>243</ele>
        <time>2016-04-26T03:56:05Z</time>
      </trkpt>
      <trkpt lat="47.1246" lon="5.51893">
        <ele>243</ele>
        <time>2016-04-26T03:58:05Z</time>
      </trkpt>
      <trkpt lat="47.12446" lon="5.51879">
        <ele>244</ele>
        <time>2016-04-26T04:00:05Z</time>
      </trkpt>
      <trkpt lat="47.12427" lon="5.51852">
        <ele>246</ele>
        <time>2016-04-26T04:02:05Z</time>
      </trkpt>
      <trkpt lat="47.12416" lon="5.51826">
        <ele>248</ele>
        <time>2016-04-26T04:04:05Z</time>
      </trkpt>
      <trkpt lat="47.1241" lon="5.51813">
        <ele>247</ele>
        <time>2016-04-26T04:06:05Z</time>
      </trkpt>
      <trkpt lat="47.12404" lon="5.51803">
        <ele>247</ele>
        <time>2016-04-26T04:08:05Z</time>
      </trkpt>
      <trkpt lat="47.12401" lon="5.51797">
        <ele>247</ele>
        <time>2016-04-26T04:10:05Z</time>
      </trkpt>
      <trkpt lat="47.12398" lon="5.51791">
        <ele>247</ele>
        <time>2016-04-26T04:12:05Z</time>
      </trkpt>
      <trkpt lat="47.12382" lon="5.51765">
        <ele>247</ele>
        <time>2016-04-26T04:14:05Z</time>
      </trkpt>
      <trkpt lat="47.12378" lon="5.51761">
        <ele>247</ele>
        <time>2016-04-26T04:16:05Z</time>
      </trkpt>
      <trkpt lat="47.12366" lon="5.51751">
        <ele>248</ele>
        <time>2016-04-26T04:18:05Z</time>
      </trkpt>
      <trkpt lat="47.12342" lon="5.51722">
        <ele>248</ele>
        <time>2016-04-26T04:20:05Z</time>
      </trkpt>
      <trkpt lat="47.12337" lon="5.51719">
        <ele>249</ele>
        <time>2016-04-26T04:22:05Z</time>
      </trkpt>
      <trkpt lat="47.12334" lon="5.51715">
        <ele>249</ele>
        <time>2016-04-26T04:24:05Z</time>
      </trkpt>
      <trkpt lat="47.12326" lon="5.51704">
        <ele>248</ele>
        <time>2016-04-26T04:26:05Z</time>
      </trkpt>
      <trkpt lat="47.12322" lon="5.51699">
        <ele>247</ele>
        <time>2016-04-26T04:28:05Z</time>
      </trkpt>
      <trkpt lat="47.12315" lon="5.5169">
        <ele>247</ele>
        <time>2016-04-26T04:30:05Z</time>
      </trkpt>
      <trkpt lat="47.12311" lon="5.51683">
        <ele>246</ele>
        <time>2016-04-26T04:32:05Z</time>
      </trkpt>
      <trkpt lat="47.123" lon="5.51664">
        <ele>246</ele>
        <time>2016-04-26T04:34:05Z</time>
      </trkpt>
      <trkpt lat="47.12297" lon="5.51659">
        <ele>245</ele>
        <time>2016-04-26T04:36:05Z</time>
      </trkpt>
      <trkpt lat="47.12286" lon="5.51641">
        <ele>244</ele>
        <time>2016-04-26T04:38:05Z</time>
      </trkpt>
      <trkpt lat="47.12282" lon="5.51636">
        <ele>244</ele>
        <time>2016-04-26T04:40:05Z</time>
      </trkpt>
      <trkpt lat="47.12256" lon="5.51615">
        <ele>244</ele>
        <time>2016-04-26T04:42:05Z</time>
      </trkpt>
      <trkpt lat="47.12233" lon="5.51595">
        <ele>242</ele>
        <time>2016-04-26T04:44:05Z</time>
      </trkpt>
      <trkpt lat="47.12214" lon="5.51586">
        <ele>241</ele>
        <time>2016-04-26T04:46:05Z</time>
      </trkpt>
      <trkpt lat="47.1219" lon="5.51572">
        <ele>241</ele>
        <time>2016-04-26T04:48:05Z</time>
      </trkpt>
      <trkpt lat="47.1218" lon="5.51568">
        <ele>241</ele>
        <time>2016-04-26T04:50:05Z</time>
      </trkpt>
      <trkpt lat="47.12144" lon="5.5154">
        <ele>239</ele>
        <time>2016-04-26T04:52:05Z</time>
      </trkpt>
      <trkpt lat="47.12116" lon="5.5152">
        <ele>238</ele>
        <time>2016-04-26T04:54:05Z</time>
      </trkpt>
      <trkpt lat="47.12083" lon="5.51496">
        <ele>238</ele>
        <time>2016-04-26T04:56:05Z</time>
      </trkpt>
      <trkpt lat="47.12064" lon="5.51484">
        <ele>238</ele>
        <time>2016-04-26T04:58:05Z</time>
      </trkpt>
      <trkpt lat="47.1205" lon="5.51473">
        <ele>237</ele>
        <time>2016-04-26T05:00:05Z</time>
      </trkpt>
      <trkpt lat="47.12037" lon="5.5146">
        <ele>237</ele>
        <time>2016-04-26T05:02:05Z</time>
      </trkpt>
      <trkpt lat="47.12018" lon="5.51448">
        <ele>236</ele>
        <time>2016-04-26T05:04:05Z</time>
      </trkpt>
      <trkpt lat="47.11991" lon="5.51427">
        <ele>235</ele>
        <time>2016-04-26T05:06:05Z</time>
      </trkpt>
      <trkpt lat="47.11981" lon="5.51422">
        <ele>235</ele>
        <time>2016-04-26T05:08:05Z</time>
      </trkpt>
      <trkpt lat="47.11973" lon="5.51415">
        <ele>235</ele>
        <time>2016-04-26T05:10:05Z</time>
      </trkpt>
      <trkpt lat="47.11946" lon="5.51392">
        <ele>233</ele>
        <time>2016-04-26T05:12:05Z</time>
      </trkpt>
      <trkpt lat="47.11941" lon="5.51389">
        <ele>233</ele>
        <time>2016-04-26T05:14:05Z</time>
      </trkpt>
      <trkpt lat="47.11937" lon="5.51385">
        <ele>233</ele>
        <time>2016-04-26T05:16:05Z</time>
      </trkpt>
      <trkpt lat="47.11907" lon="5.51361">
        <ele>231</ele>
        <time>2016-04-26T05:18:05Z</time>
      </trkpt>
      <trkpt lat="47.11902" lon="5.51356">
        <ele>231</ele>
        <time>2016-04-26T05:20:05Z</time>
      </trkpt>
      <trkpt lat="47.11897" lon="5.51354">
        <ele>231</ele>
        <time>2016-04-26T05:22:05Z</time>
      </trkpt>
      <trkpt lat="47.11889" lon="5.51346">
        <ele>230</ele>
        <time>2016-04-26T05:24:05Z</time>
      </trkpt>
      <trkpt lat="47.11879" lon="5.51341">
        <ele>230</ele>
        <time>2016-04-26T05:26:05Z</time>
      </trkpt>
      <trkpt lat="47.11856" lon="5.51321">
        <ele>230</ele>
        <time>2016-04-26T05:28:05Z</time>
      </trkpt>
      <trkpt lat="47.11852" lon="5.51318">
        <ele>230</ele>
        <time>2016-04-26T05:30:05Z</time>
      </trkpt>
      <trkpt lat="47.11817" lon="5.51291">
        <ele>231</ele>
        <time>2016-04-26T05:32:05Z</time>
      </trkpt>
      <trkpt lat="47.11809" lon="5.51284">
        <ele>231</ele>
        <time>2016-04-26T05:34:05Z</time>
      </trkpt>
      <trkpt lat="47.11766" lon="5.51253">
        <ele>231</ele>
        <time>2016-04-26T05:36:05Z</time>
      </trkpt>
      <trkpt lat="47.11757" lon="5.51246">
        <ele>231</ele>
        <time>2016-04-26T05:38:05Z</time>
      </trkpt>
      <trkpt lat="47.11749" lon="5.51239">
        <ele>231</ele>
        <time>2016-04-26T05:40:05Z</time>
      </trkpt>
      <trkpt lat="47.11715" lon="5.51213">
        <ele>230</ele>
        <time>2016-04-26T05:42:05Z</time>
      </trkpt>
      <trkpt lat="47.11689" lon="5.51191">
        <ele>230</ele>
        <time>2016-04-26T05:44:05Z</time>
      </trkpt>
      <trkpt lat="47.11665" lon="5.51174">
        <ele>229</ele>
        <time>2016-04-26T05:46:05Z</time>
      </trkpt>
      <trkpt lat="47.11639" lon="5.51165">
        <ele>228</ele>
        <time>2016-04-26T05:48:05Z</time>
      </trkpt>
      <trkpt lat="47.11624" lon="5.51166">
        <ele>227</ele>
        <time>2016-04-26T05:50:05Z</time>
      </trkpt>
      <trkpt lat="47.11615" lon="5.51165">
        <ele>227</ele>
        <time>2016-04-26T05:52:05Z</time>
      </trkpt>
      <trkpt lat="47.11597" lon="5.51154">
        <ele>227</ele>
        <time>2016-04-26T05:54:05Z</time>
      </trkpt>
      <trkpt lat="47.11588" lon="5.51143">
        <ele>226</ele>
        <time>2016-04-26T05:56:05Z</time>
      </trkpt>
      <trkpt lat="47.11584" lon="5.51137">
        <ele>226</ele>
        <time>2016-04-26T05:58:05Z</time>
      </trkpt>
      <trkpt lat="47.11577" lon="5.51127">
        <ele>226</ele>
        <time>2016-04-26T06:00:05Z</time>
      </trkpt>
      <trkpt lat="47.11574" lon="5.51121">
        <ele>226</ele>
        <time>2016-04-26T06:02:05Z</time>
      </trkpt>
      <trkpt lat="47.11568" lon="5.51107">
        <ele>226</ele>
        <time>2016-04-26T06:04:05Z</time>
      </trkpt>
      <trkpt lat="47.11556" lon="5.51082">
        <ele>227</ele>
        <time>2016-04-26T06:06:05Z</time>
      </trkpt>
      <trkpt lat="47.11553" lon="5.51077">
        <ele>227</ele>
        <time>2016-04-26T06:08:05Z</time>
      </trkpt>
      <trkpt lat="47.11541" lon="5.51062">
        <ele>227</ele>
        <time>2016-04-26T06:10:05Z</time>
      </trkpt>
      <trkpt lat="47.11537" lon="5.51057">
        <ele>227</ele>
        <time>2016-04-26T06:12:05Z</time>
      </trkpt>
      <trkpt lat="47.11533" lon="5.51053">
        <ele>227</ele>
        <time>2016-04-26T06:14:05Z</time>
      </trkpt>
      <trkpt lat="47.11514" lon="5.51029">
        <ele>227</ele>
        <time>2016-04-26T06:16:05Z</time>
      </trkpt>
      <trkpt lat="47.1151" lon="5.51025">
        <ele>227</ele>
        <time>2016-04-26T06:18:05Z</time>
      </trkpt>
      <trkpt lat="47.11474" lon="5.50986">
        <ele>226</ele>
        <time>2016-04-26T06:20:05Z</time>
      </trkpt>
      <trkpt lat="47.11467" lon="5.50977">
        <ele>226</ele>
        <time>2016-04-26T06:22:05Z</time>
      </trkpt>
      <trkpt lat="47.11452" lon="5.50959">
        <ele>226</ele>
        <time>2016-04-26T06:24:05Z</time>
      </trkpt>
      <trkpt lat="47.11448" lon="5.50953">
        <ele>226</ele>
        <time>2016-04-26T06:26:05Z</time>
      </trkpt>
      <trkpt lat="47.11444" lon="5.50941">
        <ele>225</ele>
        <time>2016-04-26T06:28:05Z</time>
      </trkpt>
      <trkpt lat="47.11442" lon="5.50936">
        <ele>225</ele>
        <time>2016-04-26T06:30:05Z</time>
      </trkpt>
      <trkpt lat="47.11447" lon="5.5093">
        <ele>225</ele>
        <time>2016-04-26T06:32:05Z</time>
      </trkpt>
      <trkpt lat="47.1148" lon="5.50897">
        <ele>226</ele>
        <time>2016-04-26T06:34:05Z</time>
      </trkpt>
      <trkpt lat="47.11512" lon="5.50859">
        <ele>227</ele>
        <time>2016-04-26T06:36:05Z</time>
      </trkpt>
      <trkpt lat="47.11528" lon="5.50841">
        <ele>228</ele>
        <time>2016-04-26T06:38:05Z</time>
      </trkpt>
      <trkpt lat="47.11536" lon="5.50832">
        <ele>228</ele>
        <time>2016-04-26T06:40:05Z</time>
      </trkpt>
      <trkpt lat="47.1154" lon="5.50828">
        <ele>228</ele>
        <time>2016-04-26T06:42:05Z</time>
      </trkpt>
      <trkpt lat="47.11573" lon="5.50789">
        <ele>230</ele>
        <time>2016-04-26T06:44:05Z</time>
      </trkpt>
      <trkpt lat="47.1157" lon="5.50783">
        <ele>230</ele>
        <time>2016-04-26T06:46:05Z</time>
      </trkpt>
      <trkpt lat="47.11555" lon="5.50776">
        <ele>230</ele>
        <time>2016-04-26T06:48:05Z</time>
      </trkpt>
      <trkpt lat="47.1154" lon="5.50769">
        <ele>230</ele>
        <time>2016-04-26T06:50:05Z</time>
      </trkpt>
      <trkpt lat="47.11512" lon="5.50748">
        <ele>230</ele>
        <time>2016-04-26T06:52:05Z</time>
      </trkpt>
      <trkpt lat="47.11494" lon="5.50736">
        <ele>230</ele>
        <time>2016-04-26T06:54:05Z</time>
      </trkpt>
      <trkpt lat="47.1148" lon="5.50729">
        <ele>230</ele>
        <time>2016-04-26T06:56:05Z</time>
      </trkpt>
      <trkpt lat="47.11447" lon="5.50709">
        <ele>229</ele>
        <time>2016-04-26T06:58:05Z</time>
      </trkpt>
      <trkpt lat="47.11437" lon="5.50701">
        <ele>229</ele>
        <time>2016-04-26T07:00:05Z</time>
      </trkpt>
      <trkpt lat="47.11419" lon="5.50687">
        <ele>229</ele>
        <time>2016-04-26T07:02:05Z</time>
      </trkpt>
      <trkpt lat="47.11409" lon="5.50683">
        <ele>229</ele>
        <time>2016-04-26T07:04:05Z</time>
      </trkpt>
      <trkpt lat="47.11395" lon="5.50674">
        <ele>229</ele>
        <time>2016-04-26T07:06:05Z</time>
      </trkpt>
      <trkpt lat="47.11371" lon="5.50656">
        <ele>229</ele>
        <time>2016-04-26T07:08:05Z</time>
      </trkpt>
      <trkpt lat="47.11366" lon="5.50653">
        <ele>229</ele>
        <time>2016-04-26T07:10:05Z</time>
      </trkpt>
      <trkpt lat="47.11342" lon="5.50633">
        <ele>229</ele>
        <time>2016-04-26T07:12:05Z</time>
      </trkpt>
      <trkpt lat="47.11321" lon="5.50615">
        <ele>229</ele>
        <time>2016-04-26T07:14:05Z</time>
      </trkpt>
      <trkpt lat="47.11308" lon="5.50602">
        <ele>229</ele>
        <time>2016-04-26T07:16:05Z</time>
      </trkpt>
      <trkpt lat="47.1129" lon="5.50586">
        <ele>228</ele>
        <time>2016-04-26T07:18:05Z</time>
      </trkpt>
      <trkpt lat="47.11286" lon="5.50582">
        <ele>228</ele>
        <time>2016-04-26T07:20:05Z</time>
      </trkpt>
      <trkpt lat="47.11278" lon="5.50572">
        <ele>228</ele>
        <time>2016-04-26T07:22:05Z</time>
      </trkpt>
      <trkpt lat="47.11258" lon="5.50549">
        <ele>228</ele>
        <time>2016-04-26T07:24:05Z</time>
      </trkpt>
      <trkpt lat="47.11254" lon="5.50545">
        <ele>228</ele>
        <time>2016-04-26T07:26:05Z</time>
      </trkpt>
      <trkpt lat="47.11239" lon="5.50524">
        <ele>228</ele>
        <time>2016-04-26T07:28:05Z</time>
      </trkpt>
      <trkpt lat="47.11233" lon="5.50513">
        <ele>227</ele>
        <time>2016-04-26T07:30:05Z</time>
      </trkpt>
      <trkpt lat="47.11229" lon="5.50509">
        <ele>227</ele>
        <time>2016-04-26T07:32:05Z</time>
      </trkpt>
      <trkpt lat="47.11201" lon="5.50477">
        <ele>226</ele>
        <time>2016-04-26T07:34:05Z</time>
      </trkpt>
      <trkpt lat="47.11197" lon="5.50471">
        <ele>226</ele>
        <time>2016-04-26T07:36:05Z</time>
      </trkpt>
      <trkpt lat="47.11188" lon="5.50453">
        <ele>226</ele>
        <time>2016-04-26T07:38:05Z</time>
      </trkpt>
      <trkpt lat="47.11185" lon="5.50448">
        <ele>226</ele>
        <time>2016-04-26T07:40:05Z</time>
      </trkpt>
      <trkpt lat="47.11174" lon="5.50415">
        <ele>226</ele>
        <time>2016-04-26T07:42:05Z</time>
      </trkpt>
      <trkpt lat="47.11176" lon="5.50395">
        <ele>226</ele>
        <time>2016-04-26T07:44:05Z</time>
      </trkpt>
      <trkpt lat="47.11185" lon="5.50354">
        <ele>227</ele>
        <time>2016-04-26T07:46:05Z</time>
      </trkpt>
      <trkpt lat="47.11216" lon="5.50238">
        <ele>232</ele>
        <time>2016-04-26T07:48:05Z</time>
      </trkpt>
      <trkpt lat="47.11229" lon="5.50206">
        <ele>233</ele>
        <time>2016-04-26T07:50:05Z</time>
      </trkpt>
      <trkpt lat="47.11241" lon="5.50172">
        <ele>235</ele>
        <time>2016-04-26T07:52:05Z</time>
      </trkpt>
      <trkpt lat="47.11244" lon="5.50166">
        <ele>235</ele>
        <time>2016-04-26T07:54:05Z</time>
      </trkpt>
      <trkpt lat="47.11247" lon="5.50159">
        <ele>235</ele>
        <time>2016-04-26T07:56:05Z</time>
      </trkpt>
      <trkpt lat="47.11262" lon="5.50128">
        <ele>238</ele>
        <time>2016-04-26T07:58:05Z</time>
      </trkpt>
      <trkpt lat="47.11281" lon="5.50085">
        <ele>240</ele>
        <time>2016-04-26T08:00:05Z</time>
      </trkpt>
      <trkpt lat="47.11284" lon="5.5008">
        <ele>240</ele>
        <time>2016-04-26T08:02:05Z</time>
      </trkpt>
      <trkpt lat="47.11289" lon="5.50068">
        <ele>241</ele>
        <time>2016-04-26T08:04:05Z</time>
      </trkpt>
      <trkpt lat="47.11289" lon="5.50062">
        <ele>241</ele>
        <time>2016-04-26T08:06:05Z</time>
      </trkpt>
      <trkpt lat="47.11286" lon="5.50056">
        <ele>242</ele>
        <time>2016-04-26T08:08:05Z</time>
      </trkpt>
      <trkpt lat="47.11283" lon="5.50043">
        <ele>242</ele>
        <time>2016-04-26T08:10:05Z</time>
      </trkpt>
      <trkpt lat="47.11278" lon="5.50041">
        <ele>243</ele>
        <time>2016-04-26T08:12:05Z</time>
      </trkpt>
      <trkpt lat="47.11268" lon="5.50041">
        <ele>243</ele>
        <time>2016-04-26T08:14:05Z</time>
      </trkpt>
      <trkpt lat="47.11244" lon="5.50037">
        <ele>243</ele>
        <time>2016-04-26T08:16:05Z</time>
      </trkpt>
      <trkpt lat="47.11223" lon="5.50031">
        <ele>243</ele>
        <time>2016-04-26T08:18:05Z</time>
      </trkpt>
      <trkpt lat="47.11198" lon="5.5002">
        <ele>243</ele>
        <time>2016-04-26T08:20:05Z</time>
      </trkpt>
      <trkpt lat="47.11174" lon="5.50015">
        <ele>242</ele>
        <time>2016-04-26T08:22:05Z</time>
      </trkpt>
      <trkpt lat="47.11171" lon="5.50011">
        <ele>242</ele>
        <time>2016-04-26T08:24:05Z</time>
      </trkpt>
      <trkpt lat="47.11169" lon="5.50004">
        <ele>243</ele>
        <time>2016-04-26T08:26:05Z</time>
      </trkpt>
      <trkpt lat="47.11173" lon="5.49969">
        <ele>243</ele>
        <time>2016-04-26T08:28:05Z</time>
      </trkpt>
      <trkpt lat="47.11173" lon="5.49961">
        <ele>243</ele>
        <time>2016-04-26T08:30:05Z</time>
      </trkpt>
      <trkpt lat="47.11175" lon="5.49939">
        <ele>243</ele>
        <time>2016-04-26T08:32:05Z</time>
      </trkpt>
      <trkpt lat="47.1118" lon="5.49902">
        <ele>244</ele>
        <time>2016-04-26T08:34:05Z</time>
      </trkpt>
      <trkpt lat="47.11184" lon="5.49882">
        <ele>244</ele>
        <time>2016-04-26T08:36:05Z</time>
      </trkpt>
      <trkpt lat="47.11187" lon="5.49876">
        <ele>244</ele>
        <time>2016-04-26T08:38:05Z</time>
      </trkpt>
      <trkpt lat="47.11196" lon="5.4987">
        <ele>245</ele>
        <time>2016-04-26T08:40:05Z</time>
      </trkpt>
      <trkpt lat="47.11201" lon="5.49872">
        <ele>245</ele>
        <time>2016-04-26T08:42:05Z</time>
      </trkpt>
      <trkpt lat="47.11208" lon="5.49877">
        <ele>245</ele>
        <time>2016-04-26T08:44:05Z</time>
      </trkpt>
      <trkpt lat="47.11227" lon="5.49887">
        <ele>246</ele>
        <time>2016-04-26T08:46:05Z</time>
      </trkpt>
      <trkpt lat="47.11241" lon="5.49895">
        <ele>246</ele>
        <time>2016-04-26T08:48:05Z</time>
      </trkpt>
      <trkpt lat="47.11251" lon="5.499">
        <ele>246</ele>
        <time>2016-04-26T08:50:05Z</time>
      </trkpt>
      <trkpt lat="47.11256" lon="5.49902">
        <ele>246</ele>
        <time>2016-04-26T08:52:05Z</time>
      </trkpt>
      <trkpt lat="47.11269" lon="5.49909">
        <ele>246</ele>
        <time>2016-04-26T08:54:05Z</time>
      </trkpt>
    </trkseg>
  </trk>
</gpx>